High Gate, Missouri
Current Conditions -  °F | °C
As of 12:53 PM on Monday 20 Oct 2014 (Local Time) from KVIH Reporting Station
Clear Clear  
Wind Chill: 21°   Ceiling: Unl
Heat Index: 21°   Visibility: 10mi
Dew Point: 13°   Wind: 12mph
Humidity: 61%   Direction: 270°W
Pressure: 30"   Gusts: NA
Location:  37.9936°N, 91.5964°W
Report Text: KVIH 201753Z AUTO 27010KT 10SM CLR 21/13 A3000 RMK AO2 SLP153 T02060128 10206 20100 58007
Loading
Personal Weather Stations






























Interactive Weather Map
Tropical Storm Tracking
New forecast layout! Learn more

10-Day Weather Forecast

Advertisements
Track Severe Weather on mobile